Latest Weather Observations for Sydney Harbour

IDN60801

Issued at 12:33 am EST Wednesday 31 August 2016 (issued every 30 minutes, with the page automatically refreshed every 10 minutes)

About weather observations | Map of weather stations | Latest weather observations for NSW | Other Formats
Station Details ID: 066196 Name: WEDDING CAKE WEST Lat: -33.84 Lon: 151.26 Height: 6.0 m
Data from the previous 72 hours. | See also: Recent months at Sydney Harbour
Date/Time
EST
Temp
°C
App
Temp
°C
Dew
Point
°C
Rel
Hum
%
Delta-T
°C
Wind Press
QNH
hPa
Press
MSL
hPa
Rain since
9am
mm
Dir  Spd
km/h
Gust
km/h
Spd
kts
Gust
kts
31/12:30am 17.6 - - - - N 22 28 12 15 - - -
31/12:00am 17.6 - - - - NNE 20 24 11 13 - - -
 
Date/Time
EST
Temp
°C
App
Temp
°C
Dew
Point
°C
Rel
Hum
%
Delta-T
°C
Wind Press
QNH
hPa
Press
MSL
hPa
Rain since
9am
mm
Dir  Spd
km/h
Gust
km/h
Spd
kts
Gust
kts
30/11:30pm 17.7 - - - - N 19 20 10 11 - - -
30/11:00pm 17.8 - - - - NNE 19 22 10 12 - - -
30/10:30pm 17.9 - - - - NNE 20 26 11 14 - - -
30/10:00pm 18.3 - - - - NNE 24 28 13 15 - - -
30/09:30pm 18.4 - - - - NNE 26 32 14 17 - - -
30/09:00pm 18.3 - - - - NNE 33 43 18 23 - - -
30/08:30pm 18.1 - - - - NNE 30 33 16 18 - - -
30/08:00pm 18.1 - - - - NNE 26 30 14 16 - - -
30/07:30pm 18.2 - - - - NNE 28 35 15 19 - - -
30/07:00pm 18.1 - - - - NNE 24 28 13 15 - - -
30/06:30pm 18.1 - - - - NNE 30 35 16 19 - - -
30/06:00pm 18.0 - - - - NNE 24 30 13 16 - - -
30/05:30pm 17.9 - - - - NNE 24 28 13 15 - - -
30/05:00pm 17.9 - - - - NNE 26 32 14 17 - - -
30/04:30pm 17.9 - - - - NNE 26 32 14 17 - - -
30/04:00pm 17.8 - - - - NNE 24 28 13 15 - - -
30/03:30pm 17.7 - - - - NNE 24 28 13 15 - - -
30/03:00pm 17.4 - - - - NNE 26 30 14 16 - - -
30/02:30pm 17.3 - - - - NNE 24 30 13 16 - - -
30/02:00pm 17.2 - - - - NNE 24 28 13 15 - - -
30/01:30pm 17.3 - - - - NNE 20 22 11 12 - - -
30/01:00pm 17.1 - - - - NE 9 11 5 6 - - -
30/12:30pm 17.0 - - - - E 11 17 6 9 - - -
30/12:00pm 16.3 - - - - SW 9 11 5 6 - - -
30/11:30am 15.8 - - - - SW 9 11 5 6 - - -
30/11:00am 15.4 - - - - SW 11 15 6 8 - - -
30/10:30am 14.7 - - - - SW 9 11 5 6 - - -
30/10:00am 14.4 - - - - SW 9 11 5 6 - - -
30/09:30am 14.4 - - - - WSW 9 13 5 7 - - -
30/09:00am 14.1 - - - - SW 9 13 5 7 - - -
30/08:30am 13.8 - - - - WSW 11 13 6 7 - - -
30/08:00am 13.8 - - - - WSW 7 9 4 5 - - -
30/07:30am 13.6 - - - - WSW 6 9 3 5 - - -
30/07:00am 13.5 - - - - CALM 0 0 0 0 - - -
30/06:30am 13.1 - - - - WSW 7 11 4 6 - - -
30/06:00am 13.2 - - - - WSW 9 11 5 6 - - -
30/05:30am 13.5 - - - - WSW 7 11 4 6 - - -
30/05:00am 13.6 - - - - WSW 9 11 5 6 - - -
30/04:30am 13.9 - - - - W 7 9 4 5 - - -
30/04:00am 14.0 - - - - W 9 11 5 6 - - -
30/03:30am 13.9 - - - - W 6 9 3 5 - - -
30/03:00am 14.1 - - - - W 9 11 5 6 - - -
30/02:30am 13.9 - - - - NW 7 11 4 6 - - -
30/02:00am 14.4 - - - - NW 6 7 3 4 - - -
30/01:30am 14.8 - - - - W 7 9 4 5 - - -
30/01:00am 14.8 - - - - WSW 9 13 5 7 - - -
30/12:30am 14.6 - - - - WSW 9 9 5 5 - - -
30/12:00am 15.3 - - - - WNW 9 11 5 6 - - -
 
Date/Time
EST
Temp
°C
App
Temp
°C
Dew
Point
°C
Rel
Hum
%
Delta-T
°C
Wind Press
QNH
hPa
Press
MSL
hPa
Rain since
9am
mm
Dir  Spd
km/h
Gust
km/h
Spd
kts
Gust
kts
29/11:30pm 15.8 - - - - N 9 11 5 6 - - -
29/11:00pm 16.0 - - - - N 11 15 6 8 - - -
29/10:30pm 15.5 - - - - N 9 13 5 7 - - -
29/10:00pm 16.0 - - - - N 9 11 5 6 - - -
29/09:30pm 16.0 - - - - N 13 15 7 8 - - -
29/09:00pm 16.4 - - - - N 13 15 7 8 - - -
29/08:30pm 15.9 - - - - N 7 9 4 5 - - -
29/08:00pm 15.9 - - - - N 9 11 5 6 - - -
29/07:30pm 16.6 - - - - NNE 15 17 8 9 - - -
29/07:00pm 16.5 - - - - NE 15 19 8 10 - - -
29/06:30pm 16.5 - - - - NNE 17 20 9 11 - - -
29/06:00pm 16.7 - - - - NE 15 17 8 9 - - -
29/05:30pm 16.9 - - - - NNE 17 19 9 10 - - -
29/05:00pm 16.9 - - - - NE 15 17 8 9 - - -
29/04:30pm 16.9 - - - - ENE 15 19 8 10 - - -
29/04:00pm 17.2 - - - - ENE 13 15 7 8 - - -
29/03:30pm 17.3 - - - - SW 9 13 5 7 - - -
29/03:00pm 17.1 - - - - SW 9 13 5 7 - - -
29/02:30pm 17.0 - - - - SW 9 9 5 5 - - -
29/02:00pm 17.1 - - - - SW 6 7 3 4 - - -
29/01:30pm 16.3 - - - - SW 9 11 5 6 - - -
29/01:00pm 15.9 - - - - SW 9 13 5 7 - - -
29/12:30pm 16.5 - - - - SW 6 9 3 5 - - -
29/12:00pm 14.7 - - - - SW 11 15 6 8 - - -
29/11:30am 14.5 - - - - SW 11 13 6 7 - - -
29/11:00am 14.0 - - - - W 15 19 8 10 - - -
29/10:30am 13.7 - - - - W 15 19 8 10 - - -
29/10:00am 13.4 - - - - WSW 17 20 9 11 - - -
29/09:30am 13.0 - - - - W 20 30 11 16 - - -
29/09:00am 12.9 - - - - WSW 17 24 9 13 - - -
29/08:30am 12.6 - - - - WSW 19 26 10 14 - - -
29/08:00am 12.4 - - - - W 19 24 10 13 - - -
29/07:30am 11.9 - - - - WSW 13 19 7 10 - - -
29/07:00am 11.5 - - - - WSW 7 15 4 8 - - -
29/06:30am 11.1 - - - - WNW 7 13 4 7 - - -
29/06:00am 11.3 - - - - W 13 17 7 9 - - -
29/05:30am 11.6 - - - - W 17 22 9 12 - - -
29/05:00am 11.8 - - - - W 17 20 9 11 - - -
29/04:30am 11.7 - - - - W 17 19 9 10 - - -
29/04:00am 11.6 - - - - W 15 17 8 9 - - -
29/03:30am 11.4 - - - - WSW 11 13 6 7 - - -
29/03:00am 12.0 - - - - WSW 13 15 7 8 - - -
29/02:30am 12.5 - - - - W 9 11 5 6 - - -
29/02:00am 12.8 - - - - W 7 13 4 7 - - -
29/01:30am 12.9 - - - - WSW 11 15 6 8 - - -
29/01:00am 13.4 - - - - SW 7 9 4 5 - - -
29/12:30am 13.5 - - - - SW 6 7 3 4 - - -
29/12:00am 14.1 - - - - SW 9 11 5 6 - - -
 
Date/Time
EST
Temp
°C
App
Temp
°C
Dew
Point
°C
Rel
Hum
%
Delta-T
°C
Wind Press
QNH
hPa
Press
MSL
hPa
Rain since
9am
mm
Dir  Spd
km/h
Gust
km/h
Spd
kts
Gust
kts
28/11:30pm 13.9 - - - - NW 6 9 3 5 - - -
28/11:00pm 13.5 - - - - W 2 9 1 5 - - -
28/10:30pm 14.1 - - - - W 7 9 4 5 - - -
28/10:00pm 13.9 - - - - W 7 13 4 7 - - -
28/09:30pm 14.1 - - - - CALM 0 0 0 0 - - -
28/09:00pm 14.1 - - - - CALM 0 0 0 0 - - -
28/08:30pm 14.2 - - - - CALM 0 0 0 0 - - -
28/08:00pm 14.6 - - - - NE 7 13 4 7 - - -
28/07:30pm 15.2 - - - - CALM 0 0 0 0 - - -
28/07:00pm 14.9 - - - - CALM 0 0 0 0 - - -
28/06:30pm 16.0 - - - - CALM 0 0 0 0 - - -
28/06:00pm 16.0 - - - - SSE 7 9 4 5 - - -
28/05:30pm 16.5 - - - - SSE 11 13 6 7 - - -
28/05:00pm 17.2 - - - - SSE 13 19 7 10 - - -
28/04:30pm 17.5 - - - - S 13 15 7 8 - - -
28/04:00pm 17.5 - - - - SSE 15 20 8 11 - - -
28/03:30pm 17.3 - - - - SSE 19 24 10 13 - - -
28/03:00pm 17.4 - - - - SE 13 20 7 11 - - -
28/02:30pm 17.2 - - - - SE 17 20 9 11 - - -
28/02:00pm 17.2 - - - - SE 17 20 9 11 - - -
28/01:30pm 17.3 - - - - ESE 15 22 8 12 - - -
28/01:00pm 16.8 - - - - SE 19 26 10 14 - - -
28/12:30pm 17.1 - - - - WSW 17 22 9 12 - - -
28/12:00pm 16.0 - - - - WNW 17 24 9 13 - - -
28/11:30am 15.3 - - - - W 19 26 10 14 - - -
28/11:00am 14.6 - - - - W 24 30 13 16 - - -
28/10:30am 14.0 - - - - WSW 24 30 13 16 - - -
28/10:00am 13.6 - - - - W 30 39 16 21 - - -
28/09:30am 12.8 - - - - W 30 37 16 20 - - -
28/09:00am 12.4 - - - - W 24 33 13 18 - - -
28/08:30am 12.5 - - - - W 26 35 14 19 - - -
28/08:00am 11.7 - - - - W 19 26 10 14 - - -
28/07:30am 11.0 - - - - W 24 37 13 20 - - -
28/07:00am 11.2 - - - - W 20 28 11 15 - - -
28/06:30am 11.2 - - - - W 19 26 10 14 - - -
28/06:00am 10.8 - - - - W 19 26 10 14 - - -
28/05:30am 11.5 - - - - W 28 43 15 23 - - -
28/05:00am 11.2 - - - - W 30 39 16 21 - - -
28/04:30am 10.9 - - - - WSW 20 26 11 14 - - -
28/04:00am 10.7 - - - - WSW 17 20 9 11 - - -
28/03:30am 10.9 - - - - W 13 19 7 10 - - -
28/03:00am 10.6 - - - - WNW 9 11 5 6 - - -
28/02:30am 11.0 - - - - W 13 17 7 9 - - -
28/02:00am 11.2 - - - - W 17 20 9 11 - - -
28/01:30am 11.4 - - - - WSW 20 28 11 15 - - -
28/01:00am 11.5 - - - - W 22 28 12 15 - - -

Other Formats:

Comma delimited format used in spreadsheet applications
http://www.bom.gov.au/fwo/IDN60801/IDN60801.95766.axf

JavaScript Object Notation format (JSON) in row-major order
http://www.bom.gov.au/fwo/IDN60801/IDN60801.95766.json